createdAt,value
2023-02-03T00:00:28.095Z,11.40
2023-02-03T00:01:27.706Z,12.60
2023-02-03T00:02:27.742Z,12.20
2023-02-03T00:03:27.766Z,11.50
2023-02-03T00:04:27.685Z,11.10
2023-02-03T00:05:27.673Z,13.30
2023-02-03T00:06:27.695Z,11.80
2023-02-03T00:07:27.635Z,11.70
2023-02-03T00:08:27.692Z,11.90
2023-02-03T00:09:27.609Z,11.30
2023-02-03T00:10:27.951Z,10.90
2023-02-03T00:11:27.587Z,11.20
2023-02-03T00:12:27.613Z,12.30
2023-02-03T00:13:27.591Z,13.50
2023-02-03T00:14:27.568Z,12.30
2023-02-03T00:15:27.590Z,10.20
2023-02-03T00:16:27.683Z,10.60
2023-02-03T00:17:27.546Z,11.10
2023-02-03T00:18:27.648Z,14.70
2023-02-03T00:19:27.516Z,11.00
2023-02-03T00:20:27.894Z,10.60
2023-02-03T00:21:27.469Z,11.30
2023-02-03T00:22:27.505Z,12.10
2023-02-03T00:23:27.459Z,12.80
2023-02-03T00:24:27.666Z,14.50
2023-02-03T00:25:27.437Z,13.30
2023-02-03T00:26:27.433Z,13.30
2023-02-03T00:27:27.420Z,11.20
2023-02-03T00:28:27.427Z,11.80
2023-02-03T00:29:27.431Z,10.40
2023-02-03T00:30:27.790Z,11.10
2023-02-03T00:31:27.448Z,10.20
2023-02-03T00:32:27.582Z,10.90
2023-02-03T00:33:27.326Z,10.60
2023-02-03T00:34:27.378Z,10.10
2023-02-03T00:35:27.341Z,12.70
2023-02-03T00:36:27.359Z,12.80
2023-02-03T00:37:27.309Z,11.30
2023-02-03T00:38:27.310Z,9.80
2023-02-03T00:39:27.264Z,9.20
2023-02-03T00:40:27.774Z,10.60
2023-02-03T00:41:27.264Z,11.40
2023-02-03T00:42:27.288Z,10.30
2023-02-03T00:43:27.205Z,11.10
2023-02-03T00:44:27.208Z,9.60
2023-02-03T00:45:27.213Z,10.20
2023-02-03T00:46:27.185Z,12.40
2023-02-03T00:47:27.212Z,11.30
2023-02-03T00:48:27.167Z,9.20
2023-02-03T00:49:27.135Z,10.70
2023-02-03T00:50:27.534Z,10.70
2023-02-03T00:51:27.172Z,10.80
2023-02-03T00:52:27.114Z,11.60
2023-02-03T00:53:27.150Z,10.70
2023-02-03T00:54:27.140Z,10.40
2023-02-03T00:55:27.098Z,12.10
2023-02-03T00:56:27.065Z,12.00
2023-02-03T00:57:27.048Z,12.00
2023-02-03T00:58:27.069Z,10.30
2023-02-03T00:59:27.027Z,10.30
2023-02-03T01:00:27.303Z,11.50
2023-02-03T01:01:27.025Z,11.00
2023-02-03T01:02:27.106Z,9.30
2023-02-03T01:03:26.982Z,11.40
2023-02-03T01:04:26.993Z,10.40
2023-02-03T01:05:26.978Z,10.80
2023-02-03T01:06:26.992Z,11.00
2023-02-03T01:07:26.920Z,10.60
2023-02-03T01:08:26.989Z,10.70
2023-02-03T01:09:26.949Z,13.30
2023-02-03T01:10:27.203Z,11.90
2023-02-03T01:11:26.900Z,11.10
2023-02-03T01:12:26.905Z,12.10
2023-02-03T01:13:26.900Z,10.60
2023-02-03T01:14:26.890Z,12.80
2023-02-03T01:15:26.831Z,11.30
2023-02-03T01:16:28.591Z,13.30
2023-02-03T01:17:26.837Z,11.80
2023-02-03T01:18:31.337Z,11.80
2023-02-03T01:19:26.782Z,11.70
2023-02-03T01:20:27.151Z,10.80
2023-02-03T01:21:26.788Z,11.90
2023-02-03T01:22:26.761Z,10.00
2023-02-03T01:23:26.794Z,10.30
2023-02-03T01:24:26.732Z,10.90
2023-02-03T01:25:26.740Z,11.90
2023-02-03T01:26:26.741Z,11.50
2023-02-03T01:27:26.721Z,11.40
2023-02-03T01:28:26.731Z,12.10
2023-02-03T01:29:26.663Z,11.10
2023-02-03T01:30:27.012Z,10.00
2023-02-03T01:31:26.755Z,10.80
2023-02-03T01:32:26.647Z,11.00
2023-02-03T01:33:26.633Z,9.20
2023-02-03T01:34:26.661Z,11.70
2023-02-03T01:35:26.642Z,10.20
2023-02-03T01:36:26.656Z,10.60
2023-02-03T01:37:26.585Z,11.30
2023-02-03T01:38:26.591Z,10.40
2023-02-03T01:39:26.562Z,12.10
2023-02-03T01:40:26.793Z,11.40
2023-02-03T01:41:26.535Z,11.90
2023-02-03T01:42:26.533Z,9.60
2023-02-03T01:43:26.726Z,11.80
2023-02-03T01:44:26.522Z,10.20
2023-02-03T01:45:26.476Z,10.40
2023-02-03T01:46:26.548Z,10.60
2023-02-03T01:47:26.444Z,14.20
2023-02-03T01:48:26.478Z,11.90
2023-02-03T01:49:26.455Z,10.90
2023-02-03T01:50:26.849Z,9.90
2023-02-03T01:51:26.438Z,11.80
2023-02-03T01:52:26.406Z,12.50
2023-02-03T01:53:26.413Z,11.00
2023-02-03T01:54:26.409Z,12.30
2023-02-03T01:55:26.388Z,13.00
2023-02-03T01:56:26.364Z,11.20
2023-02-03T01:57:26.378Z,12.10
2023-02-03T01:58:26.329Z,11.20
2023-02-03T01:59:26.309Z,9.80
2023-02-03T02:00:26.629Z,11.00
2023-02-03T02:01:26.409Z,10.00
2023-02-03T02:02:26.339Z,11.70
2023-02-03T02:03:26.296Z,12.00
2023-02-03T02:04:26.286Z,10.30
2023-02-03T02:05:26.263Z,12.40
2023-02-03T02:06:26.257Z,11.70
2023-02-03T02:07:47.478Z,10.30
2023-02-03T02:08:26.211Z,10.50
2023-02-03T02:09:26.181Z,11.60
2023-02-03T02:10:26.600Z,12.60
2023-02-03T02:11:26.181Z,12.30
2023-02-03T02:12:26.175Z,11.60
2023-02-03T02:13:26.200Z,10.80
2023-02-03T02:14:26.144Z,13.40
2023-02-03T02:15:26.118Z,10.10
2023-02-03T02:16:26.158Z,10.90
2023-02-03T02:17:26.120Z,11.00
2023-02-03T02:18:26.129Z,10.60
2023-02-03T02:19:26.073Z,12.80
2023-02-03T02:20:26.367Z,12.40
2023-02-03T02:21:26.086Z,11.60
2023-02-03T02:22:26.087Z,11.90
2023-02-03T02:23:26.052Z,11.40
2023-02-03T02:24:26.024Z,10.50
2023-02-03T02:25:26.009Z,9.60
2023-02-03T02:26:26.026Z,9.10
2023-02-03T02:27:26.011Z,10.70
2023-02-03T02:28:25.981Z,12.10
2023-02-03T02:29:25.985Z,10.30
2023-02-03T02:30:26.286Z,9.60
2023-02-03T02:31:26.080Z,9.50
2023-02-03T02:32:25.961Z,9.60
2023-02-03T02:33:25.929Z,10.20
2023-02-03T02:34:25.971Z,10.30
2023-02-03T02:35:25.925Z,12.10
2023-02-03T02:36:25.885Z,10.30
2023-02-03T02:37:25.874Z,10.40
2023-02-03T02:38:25.865Z,10.20
2023-02-03T02:39:25.863Z,11.10
2023-02-03T02:40:26.290Z,11.00
2023-02-03T02:41:25.855Z,10.40
2023-02-03T02:42:25.808Z,10.70
2023-02-03T02:43:25.814Z,8.90
2023-02-03T02:44:25.788Z,9.00
2023-02-03T02:45:25.787Z,10.60
2023-02-03T02:46:25.879Z,11.20
2023-02-03T02:47:25.744Z,8.70
2023-02-03T02:48:25.746Z,10.20
2023-02-03T02:49:25.745Z,9.50
2023-02-03T02:50:26.095Z,12.10
2023-02-03T02:51:25.767Z,10.40
2023-02-03T02:52:25.709Z,11.00
2023-02-03T02:53:25.695Z,10.80
2023-02-03T02:54:25.696Z,10.40
2023-02-03T02:55:25.669Z,10.00
2023-02-03T02:56:25.696Z,10.00
2023-02-03T02:57:25.660Z,10.80
2023-02-03T02:58:25.667Z,11.80
2023-02-03T02:59:25.597Z,10.10
2023-02-03T03:00:25.981Z,9.70
2023-02-03T03:01:25.682Z,10.00
2023-02-03T03:02:25.575Z,10.90
2023-02-03T03:03:25.603Z,9.20
2023-02-03T03:04:25.655Z,10.50
2023-02-03T03:05:25.546Z,9.20
2023-02-03T03:06:25.572Z,8.70
2023-02-03T03:07:25.536Z,8.80
2023-02-03T03:08:25.506Z,10.10
2023-02-03T03:09:25.516Z,8.40
2023-02-03T03:10:25.791Z,12.30
2023-02-03T03:11:25.462Z,10.00
2023-02-03T03:12:25.503Z,8.60
2023-02-03T03:13:25.433Z,12.00
2023-02-03T03:14:25.462Z,8.90
2023-02-03T03:15:25.438Z,9.80
2023-02-03T03:16:25.458Z,8.40
2023-02-03T03:17:25.424Z,9.20
2023-02-03T03:18:25.412Z,9.90
2023-02-03T03:19:25.375Z,9.80
2023-02-03T03:20:25.758Z,9.60
2023-02-03T03:21:25.365Z,9.90
2023-02-03T03:22:25.364Z,9.70
2023-02-03T03:23:25.325Z,11.00
2023-02-03T03:24:25.349Z,9.60
2023-02-03T03:25:25.287Z,8.80
2023-02-03T03:26:25.323Z,10.80
2023-02-03T03:27:25.290Z,10.80
2023-02-03T03:28:25.312Z,11.30
2023-02-03T03:29:25.272Z,7.70
2023-02-03T03:30:25.607Z,9.50
2023-02-03T03:31:25.282Z,7.60
2023-02-03T03:32:25.284Z,7.70
2023-02-03T03:33:25.225Z,11.80
2023-02-03T03:34:25.225Z,11.20
2023-02-03T03:35:25.225Z,7.60
2023-02-03T03:36:25.213Z,10.10
2023-02-03T03:37:25.175Z,7.90
2023-02-03T03:38:25.191Z,6.90
2023-02-03T03:39:25.156Z,6.80
2023-02-03T03:40:25.497Z,7.40
2023-02-03T03:41:25.108Z,7.80
2023-02-03T03:42:25.130Z,8.80
2023-02-03T03:43:25.127Z,7.70
2023-02-03T03:44:25.114Z,7.30
2023-02-03T03:45:25.084Z,8.30
2023-02-03T03:46:25.107Z,8.20
2023-02-03T03:47:25.031Z,8.10
2023-02-03T03:48:25.095Z,6.30
2023-02-03T03:49:25.010Z,7.60
2023-02-03T03:50:25.222Z,6.30
2023-02-03T03:51:24.981Z,7.80
2023-02-03T03:52:24.990Z,6.60
2023-02-03T03:53:24.985Z,7.10
2023-02-03T03:54:24.991Z,7.80
2023-02-03T03:55:24.941Z,8.40
2023-02-03T03:56:24.980Z,8.80
2023-02-03T03:57:24.960Z,6.50
2023-02-03T03:58:24.941Z,7.10
2023-02-03T03:59:24.930Z,8.10
2023-02-03T04:00:25.410Z,7.70
2023-02-03T04:01:24.965Z,6.20
2023-02-03T04:02:24.911Z,6.60
2023-02-03T04:03:24.928Z,6.20
2023-02-03T04:04:24.873Z,7.00
2023-02-03T04:05:24.860Z,6.30
2023-02-03T04:06:24.956Z,6.10
2023-02-03T04:07:24.813Z,6.10
2023-02-03T04:08:24.794Z,5.80
2023-02-03T04:09:24.854Z,7.20
2023-02-03T04:10:24.928Z,7.70
2023-02-03T04:11:24.791Z,7.70
2023-02-03T04:12:24.852Z,7.10
2023-02-03T04:13:24.763Z,6.50
2023-02-03T04:14:24.723Z,5.70
2023-02-03T04:15:24.748Z,6.30
2023-02-03T04:16:24.741Z,6.60
2023-02-03T04:17:24.741Z,5.90
2023-02-03T04:18:24.760Z,5.80
2023-02-03T04:19:24.666Z,6.70
2023-02-03T04:20:24.944Z,7.30
2023-02-03T04:21:24.650Z,6.40
2023-02-03T04:22:24.642Z,6.20
2023-02-03T04:23:24.626Z,6.80
2023-02-03T04:24:24.838Z,5.90
2023-02-03T04:25:24.596Z,5.70
2023-02-03T04:26:24.622Z,6.30
2023-02-03T04:27:24.582Z,6.10
2023-02-03T04:28:24.548Z,6.10
2023-02-03T04:29:24.559Z,6.60
2023-02-03T04:30:24.644Z,5.20
2023-02-03T04:31:24.619Z,5.90
2023-02-03T04:32:24.520Z,6.90
2023-02-03T04:33:24.508Z,6.10
2023-02-03T04:34:24.505Z,6.50
2023-02-03T04:35:24.504Z,6.00
2023-02-03T04:36:24.480Z,7.50
2023-02-03T04:37:24.458Z,6.10
2023-02-03T04:38:24.459Z,5.20
2023-02-03T04:39:24.458Z,5.70
2023-02-03T04:40:24.499Z,5.90
2023-02-03T04:41:24.465Z,6.50
2023-02-03T04:42:24.418Z,6.50
2023-02-03T04:43:24.391Z,6.40
2023-02-03T04:44:24.367Z,7.50
2023-02-03T04:45:24.431Z,5.90
2023-02-03T04:46:24.368Z,6.70
2023-02-03T04:47:24.374Z,7.10
2023-02-03T04:48:24.339Z,5.90
2023-02-03T04:49:24.340Z,7.10
2023-02-03T04:50:24.388Z,6.10
2023-02-03T04:51:24.354Z,6.10
2023-02-03T04:52:24.265Z,6.20
2023-02-03T04:53:24.267Z,5.30
2023-02-03T04:54:24.296Z,6.70
2023-02-03T04:55:24.274Z,5.60
2023-02-03T04:56:24.224Z,6.60
2023-02-03T04:57:24.439Z,5.10
2023-02-03T04:58:24.199Z,6.30
2023-02-03T04:59:24.205Z,6.80
2023-02-03T05:00:24.210Z,6.10
2023-02-03T05:01:24.270Z,7.00
2023-02-03T05:02:24.271Z,5.60
2023-02-03T05:03:26.126Z,6.30
2023-02-03T05:04:24.127Z,6.40
2023-02-03T05:05:24.153Z,6.30
2023-02-03T05:06:24.116Z,8.10
2023-02-03T05:07:24.117Z,8.60
2023-02-03T05:08:24.076Z,7.40
2023-02-03T05:09:24.109Z,8.00
2023-02-03T05:10:24.116Z,5.80
2023-02-03T05:11:24.056Z,6.60
2023-02-03T05:12:31.087Z,5.30
2023-02-03T05:13:24.053Z,5.40
2023-02-03T05:14:25.739Z,6.70
2023-02-03T05:15:24.005Z,7.40
2023-02-03T05:16:24.017Z,5.60
2023-02-03T05:17:23.986Z,5.20
2023-02-03T05:18:23.992Z,6.70
2023-02-03T05:19:23.973Z,5.80
2023-02-03T05:20:24.173Z,4.80
2023-02-03T05:21:23.937Z,7.40
2023-02-03T05:22:23.935Z,7.50
2023-02-03T05:23:23.948Z,6.80
2023-02-03T05:24:23.893Z,6.60
2023-02-03T05:25:23.891Z,5.90
2023-02-03T05:26:24.097Z,7.30
2023-02-03T05:27:23.859Z,4.80
2023-02-03T05:28:23.875Z,5.60
2023-02-03T05:29:23.840Z,7.10
2023-02-03T05:30:23.819Z,9.60
2023-02-03T05:31:24.030Z,6.00
2023-02-03T05:32:23.792Z,5.70
2023-02-03T05:33:23.828Z,6.40
2023-02-03T05:34:23.786Z,6.20
2023-02-03T05:35:23.773Z,6.00
2023-02-03T05:36:23.796Z,5.90
2023-02-03T05:37:23.741Z,8.00
2023-02-03T05:38:23.779Z,6.50
2023-02-03T05:39:23.748Z,6.10
2023-02-03T05:40:23.730Z,7.90
2023-02-03T05:41:23.734Z,8.30
2023-02-03T05:42:23.710Z,6.20
2023-02-03T05:43:23.671Z,5.90
2023-02-03T05:44:23.711Z,5.90
2023-02-03T05:45:23.652Z,5.00
2023-02-03T05:46:23.627Z,5.70
2023-02-03T05:47:23.648Z,6.90
2023-02-03T05:48:23.611Z,6.40
2023-02-03T05:49:23.680Z,4.30
2023-02-03T05:50:23.604Z,6.90
2023-02-03T05:51:23.608Z,6.90
2023-02-03T05:52:23.587Z,6.80
2023-02-03T05:53:23.563Z,6.70
2023-02-03T05:54:23.621Z,6.80
2023-02-03T05:55:23.539Z,5.70
2023-02-03T05:56:23.508Z,5.90
2023-02-03T05:57:23.538Z,6.50
2023-02-03T05:58:23.493Z,4.90
2023-02-03T05:59:23.572Z,7.00
2023-02-03T06:00:23.464Z,5.30
2023-02-03T06:01:23.492Z,4.60
2023-02-03T06:02:23.464Z,5.80
2023-02-03T06:03:23.535Z,5.20
2023-02-03T06:04:23.464Z,5.70
2023-02-03T06:05:23.447Z,4.50
2023-02-03T06:06:23.415Z,5.60
2023-02-03T06:07:23.422Z,5.60
2023-02-03T06:08:23.394Z,6.40
2023-02-03T06:09:23.369Z,4.90
2023-02-03T06:10:23.389Z,3.90
2023-02-03T06:11:23.373Z,5.60
2023-02-03T06:12:23.336Z,6.40
2023-02-03T06:13:23.375Z,4.20
2023-02-03T06:14:23.355Z,5.40
2023-02-03T06:15:23.296Z,6.30
2023-02-03T06:16:23.314Z,4.70
2023-02-03T06:17:23.269Z,5.90
2023-02-03T06:18:23.257Z,3.80
2023-02-03T06:19:23.275Z,5.50
2023-02-03T06:20:23.268Z,6.40
2023-02-03T06:21:23.284Z,4.70
2023-02-03T06:22:23.230Z,4.90
2023-02-03T06:23:23.257Z,5.40
2023-02-03T06:24:23.248Z,4.90
2023-02-03T06:25:23.230Z,4.30
2023-02-03T06:26:23.198Z,4.70
2023-02-03T06:27:23.179Z,5.90
2023-02-03T06:28:23.145Z,5.00
2023-02-03T06:29:23.204Z,4.70
2023-02-03T06:30:23.111Z,5.90
2023-02-03T06:31:23.258Z,6.00
2023-02-03T06:32:23.110Z,4.30
2023-02-03T06:33:23.085Z,6.30
2023-02-03T06:34:23.289Z,4.60
2023-02-03T06:35:23.102Z,5.00
2023-02-03T06:36:23.070Z,6.10
2023-02-03T06:37:24.802Z,6.20
2023-02-03T06:38:23.040Z,5.20
2023-02-03T06:39:23.049Z,5.90
2023-02-03T06:40:23.023Z,5.30
2023-02-03T06:41:22.984Z,6.40
2023-02-03T06:42:22.995Z,4.80
2023-02-03T06:43:22.999Z,3.90
2023-02-03T06:44:22.974Z,4.00
2023-02-03T06:45:22.972Z,3.80
2023-02-03T06:46:25.601Z,7.20
2023-02-03T06:47:22.924Z,3.40
2023-02-03T06:48:22.920Z,5.40
2023-02-03T06:49:22.945Z,4.70
2023-02-03T06:50:22.880Z,4.70
2023-02-03T06:51:22.876Z,4.70
2023-02-03T06:52:22.845Z,5.60
2023-02-03T06:53:22.881Z,4.60
2023-02-03T06:54:22.857Z,3.60
2023-02-03T06:55:22.899Z,5.10
2023-02-03T06:56:22.828Z,3.80
2023-02-03T06:57:22.827Z,3.40
2023-02-03T06:58:22.830Z,7.50
2023-02-03T06:59:22.793Z,5.50
2023-02-03T07:00:22.794Z,4.90
2023-02-03T07:01:22.803Z,4.50
2023-02-03T07:02:22.809Z,4.80
2023-02-03T07:03:22.755Z,3.40
2023-02-03T07:04:22.740Z,3.90
2023-02-03T07:05:22.706Z,5.80
2023-02-03T07:06:22.731Z,5.20
2023-02-03T07:07:22.785Z,4.60
2023-02-03T07:08:22.783Z,4.60
2023-02-03T07:09:22.664Z,4.60
2023-02-03T07:10:22.639Z,5.10
2023-02-03T07:11:22.665Z,5.20
2023-02-03T07:12:22.637Z,5.20
2023-02-03T07:13:22.658Z,4.80
2023-02-03T07:14:22.626Z,4.20
2023-02-03T07:15:22.628Z,4.70
2023-02-03T07:16:22.683Z,5.80
2023-02-03T07:17:22.596Z,6.40
2023-02-03T07:18:45.457Z,5.90
2023-02-03T07:19:23.541Z,5.10
2023-02-03T07:20:22.538Z,6.80
2023-02-03T07:21:22.543Z,4.70
2023-02-03T07:22:22.503Z,5.50
2023-02-03T07:23:22.525Z,5.80
2023-02-03T07:24:22.698Z,5.70
2023-02-03T07:25:22.482Z,5.60
2023-02-03T07:26:22.468Z,5.60
2023-02-03T07:27:22.471Z,6.00
2023-02-03T07:28:22.448Z,5.70
2023-02-03T07:29:22.448Z,7.00
2023-02-03T07:30:22.440Z,7.10
2023-02-03T07:31:22.492Z,8.20
2023-02-03T07:32:22.376Z,5.30
2023-02-03T07:33:22.373Z,8.60
2023-02-03T07:34:22.380Z,6.10
2023-02-03T07:35:23.434Z,5.50
2023-02-03T07:36:22.344Z,5.80
2023-02-03T07:37:22.325Z,6.20
2023-02-03T07:38:22.353Z,5.60
2023-02-03T07:39:22.397Z,5.00
2023-02-03T07:40:22.314Z,6.30
2023-02-03T07:41:22.292Z,5.10
2023-02-03T07:42:22.264Z,5.80
2023-02-03T07:43:22.266Z,5.10
2023-02-03T07:44:22.253Z,6.00
2023-02-03T07:45:22.291Z,4.70
2023-02-03T07:46:22.237Z,5.50
2023-02-03T07:47:22.218Z,5.50
2023-02-03T07:48:22.200Z,6.80
2023-02-03T07:49:22.189Z,5.50
2023-02-03T07:50:22.186Z,6.70
2023-02-03T07:51:22.195Z,5.70
2023-02-03T07:52:22.213Z,6.50
2023-02-03T07:53:22.137Z,5.90
2023-02-03T07:54:22.153Z,4.80
2023-02-03T07:55:22.183Z,6.00
2023-02-03T07:56:22.101Z,5.20
2023-02-03T07:57:22.106Z,5.50
2023-02-03T07:58:22.095Z,4.40
2023-02-03T07:59:22.070Z,4.70
2023-02-03T08:00:22.079Z,4.10
2023-02-03T08:01:22.110Z,5.20
2023-02-03T08:02:22.044Z,4.60
2023-02-03T08:03:22.066Z,5.80
2023-02-03T08:04:22.025Z,8.20
2023-02-03T08:05:22.067Z,9.00
2023-02-03T08:06:22.001Z,6.50
2023-02-03T08:07:21.970Z,6.00
2023-02-03T08:08:21.959Z,4.40
2023-02-03T08:09:21.977Z,5.40
2023-02-03T08:10:21.931Z,6.70
2023-02-03T08:11:21.978Z,6.50
2023-02-03T08:12:21.938Z,6.10
2023-02-03T08:13:22.113Z,4.60
2023-02-03T08:14:21.920Z,4.70
2023-02-03T08:15:21.890Z,5.80
2023-02-03T08:16:21.942Z,5.10
2023-02-03T08:17:21.841Z,5.10
2023-02-03T08:18:21.870Z,5.70
2023-02-03T08:19:21.852Z,5.30
2023-02-03T08:20:21.818Z,6.00
2023-02-03T08:21:21.828Z,4.70
2023-02-03T08:22:21.832Z,5.90
2023-02-03T08:23:21.850Z,4.90
2023-02-03T08:24:21.822Z,7.30
2023-02-03T08:25:22.708Z,4.70
2023-02-03T08:26:21.743Z,5.50
2023-02-03T08:27:21.752Z,6.20
2023-02-03T08:28:21.812Z,5.00
2023-02-03T08:29:21.775Z,5.80
2023-02-03T08:30:21.709Z,8.40
2023-02-03T08:31:21.823Z,6.10
2023-02-03T08:32:21.805Z,6.20
2023-02-03T08:33:21.660Z,5.80
2023-02-03T08:34:21.660Z,7.20
2023-02-03T08:35:21.717Z,5.70
2023-02-03T08:36:21.655Z,7.10
2023-02-03T08:37:21.634Z,5.90
2023-02-03T08:38:21.617Z,5.60
2023-02-03T08:39:21.601Z,5.50
2023-02-03T08:40:21.657Z,5.20
2023-02-03T08:41:21.615Z,4.10
2023-02-03T08:42:21.613Z,7.50
2023-02-03T08:43:21.538Z,7.70
2023-02-03T08:44:21.567Z,6.30
2023-02-03T08:45:21.582Z,7.50
2023-02-03T08:46:21.518Z,6.30
2023-02-03T08:47:21.569Z,5.10
2023-02-03T08:48:21.500Z,4.60
2023-02-03T08:49:21.490Z,4.90
2023-02-03T08:50:21.474Z,4.90
2023-02-03T08:51:21.470Z,5.50
2023-02-03T08:52:21.476Z,4.20
2023-02-03T08:53:21.486Z,4.00
2023-02-03T08:54:21.456Z,5.70
2023-02-03T08:55:21.428Z,4.80
2023-02-03T08:56:21.427Z,5.30
2023-02-03T08:57:21.379Z,6.30
2023-02-03T08:58:21.430Z,5.70
2023-02-03T08:59:21.351Z,5.70
2023-02-03T09:00:21.356Z,6.20
2023-02-03T09:01:21.375Z,4.50
2023-02-03T09:02:21.351Z,5.80
2023-02-03T09:03:21.388Z,5.80
2023-02-03T09:04:21.384Z,5.80
2023-02-03T09:05:21.282Z,4.30
2023-02-03T09:06:23.466Z,6.40
2023-02-03T09:07:21.289Z,6.40
2023-02-03T09:08:21.281Z,7.50
2023-02-03T09:09:21.273Z,4.00
2023-02-03T09:10:21.258Z,4.70
2023-02-03T09:11:21.229Z,5.10
2023-02-03T09:12:21.218Z,6.60
2023-02-03T09:13:21.187Z,6.50
2023-02-03T09:14:21.217Z,5.00
2023-02-03T09:15:21.229Z,4.90
2023-02-03T09:16:21.253Z,6.30
2023-02-03T09:17:21.165Z,5.60
2023-02-03T09:18:21.172Z,4.30
2023-02-03T09:19:21.115Z,6.10
2023-02-03T09:20:21.238Z,6.20
2023-02-03T09:21:35.419Z,7.30
2023-02-03T09:22:22.125Z,5.80
2023-02-03T09:23:21.105Z,6.80
2023-02-03T09:24:21.117Z,4.30
2023-02-03T09:25:21.066Z,6.60
2023-02-03T09:26:21.074Z,5.90
2023-02-03T09:27:21.024Z,5.30
2023-02-03T09:28:21.137Z,5.40
2023-02-03T09:29:21.033Z,6.50
2023-02-03T09:30:21.025Z,6.70
2023-02-03T09:31:21.039Z,5.40
2023-02-03T09:32:20.978Z,9.30
2023-02-03T09:33:20.950Z,7.10
2023-02-03T09:34:20.952Z,5.80
2023-02-03T09:35:20.957Z,6.20
2023-02-03T09:36:20.930Z,6.60
2023-02-03T09:37:20.947Z,4.30
2023-02-03T09:38:20.970Z,4.80
2023-02-03T09:39:20.879Z,4.70
2023-02-03T09:40:20.906Z,4.40
2023-02-03T09:41:20.879Z,6.50
2023-02-03T09:42:20.898Z,5.00
2023-02-03T09:43:20.898Z,5.80
2023-02-03T09:44:20.899Z,5.70
2023-02-03T09:45:20.853Z,6.90
2023-02-03T09:46:20.962Z,5.00
2023-02-03T09:47:20.821Z,5.70
2023-02-03T09:48:20.876Z,5.20
2023-02-03T09:49:20.763Z,6.50
2023-02-03T09:50:20.759Z,6.00
2023-02-03T09:51:20.780Z,6.40
2023-02-03T09:52:20.797Z,5.60
2023-02-03T09:53:20.741Z,8.10
2023-02-03T09:54:20.712Z,6.60
2023-02-03T09:55:20.721Z,5.80
2023-02-03T09:56:20.702Z,6.60
2023-02-03T09:57:20.719Z,6.80
2023-02-03T09:58:20.703Z,6.90
2023-02-03T09:59:20.683Z,6.60
2023-02-03T10:00:20.680Z,6.60
2023-02-03T10:01:20.634Z,6.70
2023-02-03T10:02:20.735Z,6.20
2023-02-03T10:03:20.598Z,7.10
2023-02-03T10:04:20.623Z,6.90
2023-02-03T10:05:20.590Z,8.30
2023-02-03T10:06:20.614Z,5.80
2023-02-03T10:07:20.571Z,6.50
2023-02-03T10:08:20.576Z,6.00
2023-02-03T10:09:20.532Z,8.50
2023-02-03T10:10:20.525Z,6.90
2023-02-03T10:11:20.569Z,7.60
2023-02-03T10:12:20.532Z,8.00
2023-02-03T10:13:20.507Z,7.10
2023-02-03T10:14:20.501Z,7.80
2023-02-03T10:15:20.457Z,7.10
2023-02-03T10:16:20.519Z,6.10
2023-02-03T10:17:20.470Z,6.80
2023-02-03T10:18:20.465Z,7.60
2023-02-03T10:19:20.447Z,8.20
2023-02-03T10:20:20.440Z,7.10
2023-02-03T10:21:20.395Z,7.50
2023-02-03T10:22:20.435Z,7.20
2023-02-03T10:23:20.371Z,8.00
2023-02-03T10:24:20.391Z,8.00
2023-02-03T10:25:20.347Z,9.20
2023-02-03T10:26:20.341Z,7.40
2023-02-03T10:27:20.311Z,8.20
2023-02-03T10:28:20.477Z,8.30
2023-02-03T10:29:20.291Z,7.50
2023-02-03T10:30:20.300Z,6.10
2023-02-03T10:31:20.384Z,7.40
2023-02-03T10:32:20.294Z,7.30
2023-02-03T10:33:20.270Z,8.70
2023-02-03T10:34:20.298Z,7.50
2023-02-03T10:35:20.220Z,7.40
2023-02-03T10:36:20.221Z,7.50
2023-02-03T10:37:20.226Z,6.10
2023-02-03T10:38:20.199Z,6.10
2023-02-03T10:39:20.230Z,7.10
2023-02-03T10:40:20.221Z,6.60
2023-02-03T10:41:20.287Z,8.90
2023-02-03T10:42:20.243Z,7.40
2023-02-03T10:43:20.124Z,5.90
2023-02-03T10:44:20.209Z,6.40
2023-02-03T10:45:20.111Z,8.50
2023-02-03T10:46:20.135Z,8.10
2023-02-03T10:47:20.081Z,8.80
2023-02-03T10:48:20.428Z,9.30
2023-02-03T10:49:20.081Z,8.80
2023-02-03T10:50:20.057Z,6.10
2023-02-03T10:51:20.040Z,6.30
2023-02-03T10:52:20.033Z,7.10
2023-02-03T10:53:20.041Z,7.60
2023-02-03T10:54:20.013Z,6.30
2023-02-03T10:55:20.011Z,7.50
2023-02-03T10:56:19.986Z,5.50
2023-02-03T10:57:20.007Z,6.60
2023-02-03T10:58:20.075Z,7.30
2023-02-03T10:59:19.968Z,6.70
2023-02-03T11:00:22.193Z,7.10
2023-02-03T11:01:19.976Z,8.70
2023-02-03T11:02:19.977Z,7.50
2023-02-03T11:03:19.896Z,5.30
2023-02-03T11:04:19.943Z,8.50
2023-02-03T11:05:19.903Z,6.50
2023-02-03T11:06:19.918Z,5.40
2023-02-03T11:07:19.873Z,7.20
2023-02-03T11:08:19.872Z,5.60
2023-02-03T11:09:19.828Z,6.60
2023-02-03T11:10:19.890Z,7.70
2023-02-03T11:11:20.053Z,6.40
2023-02-03T11:12:19.812Z,6.10
2023-02-03T11:13:19.803Z,5.00
2023-02-03T11:14:19.785Z,5.50
2023-02-03T11:15:19.777Z,6.90
2023-02-03T11:16:19.843Z,6.80
2023-02-03T11:17:19.769Z,5.80
2023-02-03T11:18:19.738Z,7.80
2023-02-03T11:19:19.721Z,5.90
2023-02-03T11:20:19.822Z,7.10
2023-02-03T11:21:19.747Z,6.10
2023-02-03T11:22:19.691Z,7.10
2023-02-03T11:23:20.693Z,6.00
2023-02-03T11:24:19.705Z,7.20
2023-02-03T11:25:19.653Z,8.00
2023-02-03T11:26:19.680Z,6.30
2023-02-03T11:27:19.659Z,9.50
2023-02-03T11:28:19.710Z,7.90
2023-02-03T11:29:19.691Z,6.30
2023-02-03T11:30:19.617Z,7.90
2023-02-03T11:31:19.716Z,5.50
2023-02-03T11:32:19.621Z,7.80
2023-02-03T11:33:19.574Z,7.10
2023-02-03T11:34:19.591Z,7.70
2023-02-03T11:35:19.558Z,6.00
2023-02-03T11:36:19.559Z,7.70
2023-02-03T11:37:19.635Z,7.70
2023-02-03T11:38:19.538Z,7.50
2023-02-03T11:39:19.489Z,9.90
2023-02-03T11:40:19.481Z,8.60
2023-02-03T11:41:19.490Z,8.10
2023-02-03T11:42:19.510Z,6.90
2023-02-03T11:43:19.531Z,7.10
2023-02-03T11:44:19.437Z,6.70
2023-02-03T11:45:19.443Z,7.00
2023-02-03T11:46:19.481Z,8.00
2023-02-03T11:47:19.437Z,8.80
2023-02-03T11:48:19.427Z,8.80
2023-02-03T11:49:19.404Z,7.70
2023-02-03T11:50:19.422Z,7.90
2023-02-03T11:51:19.372Z,8.10
2023-02-03T11:52:19.357Z,7.00
2023-02-03T11:53:19.325Z,6.90
2023-02-03T11:54:19.390Z,10.10
2023-02-03T11:55:19.346Z,7.40
2023-02-03T11:56:19.296Z,8.90
2023-02-03T11:57:19.323Z,9.80
2023-02-03T11:58:19.292Z,8.90
2023-02-03T11:59:21.016Z,7.40
2023-02-03T12:00:19.296Z,8.60
2023-02-03T12:01:19.241Z,7.70
2023-02-03T12:02:19.240Z,10.30
2023-02-03T12:03:19.254Z,6.90
2023-02-03T12:04:19.248Z,11.00
2023-02-03T12:05:19.190Z,7.10
2023-02-03T12:06:19.291Z,8.20
2023-02-03T12:07:19.186Z,7.60
2023-02-03T12:08:19.169Z,7.80
2023-02-03T12:09:19.143Z,7.10
2023-02-03T12:10:19.151Z,7.10
2023-02-03T12:11:19.137Z,5.50
2023-02-03T12:12:19.177Z,6.30
2023-02-03T12:13:19.104Z,7.30
2023-02-03T12:14:19.117Z,7.20
2023-02-03T12:15:19.069Z,10.50
2023-02-03T12:16:19.148Z,7.30
2023-02-03T12:17:19.092Z,7.50
2023-02-03T12:18:19.081Z,9.00
2023-02-03T12:19:19.027Z,6.50
2023-02-03T12:20:19.061Z,5.70
2023-02-03T12:21:19.030Z,7.00
2023-02-03T12:22:19.006Z,8.30
2023-02-03T12:23:19.095Z,6.40
2023-02-03T12:24:19.016Z,7.50
2023-02-03T12:25:18.979Z,6.90
2023-02-03T12:26:18.990Z,8.30
2023-02-03T12:27:18.965Z,6.60
2023-02-03T12:28:32.630Z,8.00
2023-02-03T12:29:20.014Z,9.40
2023-02-03T12:30:18.930Z,6.70
2023-02-03T12:31:19.027Z,8.90
2023-02-03T12:32:18.899Z,8.20
2023-02-03T12:33:18.875Z,7.50
2023-02-03T12:34:18.872Z,8.30
2023-02-03T12:35:18.949Z,5.80
2023-02-03T12:36:18.858Z,5.30
2023-02-03T12:37:18.826Z,7.80
2023-02-03T12:38:18.834Z,7.20
2023-02-03T12:39:18.832Z,6.30
2023-02-03T12:40:18.786Z,6.10
2023-02-03T12:41:18.831Z,6.90
2023-02-03T12:42:18.804Z,7.20
2023-02-03T12:43:18.759Z,6.90
2023-02-03T12:44:18.764Z,5.50
2023-02-03T12:45:18.765Z,8.20
2023-02-03T12:46:18.828Z,6.40
2023-02-03T12:47:18.754Z,6.70
2023-02-03T12:48:18.714Z,6.00
2023-02-03T12:49:18.697Z,6.80
2023-02-03T12:50:18.688Z,7.80
2023-02-03T12:51:18.704Z,4.60
2023-02-03T12:52:18.666Z,5.90
2023-02-03T12:53:18.667Z,5.20
2023-02-03T12:54:18.622Z,5.10
2023-02-03T12:55:18.646Z,5.40
2023-02-03T12:56:18.599Z,5.30
2023-02-03T12:57:18.620Z,7.10
2023-02-03T12:58:18.599Z,6.50
2023-02-03T12:59:18.603Z,6.70
2023-02-03T13:00:18.604Z,6.90
2023-02-03T13:01:18.604Z,9.10
2023-02-03T13:02:18.660Z,5.30
2023-02-03T13:03:18.584Z,5.60
2023-02-03T13:04:18.563Z,6.20
2023-02-03T13:05:18.513Z,5.60
2023-02-03T13:06:18.513Z,6.80
2023-02-03T13:07:18.508Z,5.00
2023-02-03T13:08:18.507Z,6.50
2023-02-03T13:09:18.501Z,6.20
2023-02-03T13:10:18.444Z,5.80
2023-02-03T13:11:18.461Z,7.10
2023-02-03T13:12:18.413Z,5.60